Airport View

Enter AWOS ICAO identifier for current METAR.

ex. KFNL

KETB 262315Z AUTO 34011KT 10SM OVC037 M04/M09 A3008 RMK AO2

26 Feb 2020 23:17

Frequency: 120.0

Phone: 262-334-6161

Other Area AWOS: KMWC - KUES - KSBM - KUNU

TAF AMD KUES 262123Z 2621/2718 33011G20KT P6SM VCSH SCT025 BKN030 TEMPO 2621/2701 6SM -SHSN BKN025 FM270200 33010KT P6SM SCT025 BKN040 FM270600 30007KT P6SM SCT060 FM271600 31010G18KT P6SM SCT180